Time;durP1;ratioP1;P1;durP2;ratioP2;P2;SDS_P1;SDS_P2;PMS_P1;PMS_P2;Temp;Humidity;BMP_temperature;BMP_pressure;BME280_temperature;BME280_humidity;BME280_pressure;Samples;Min_cycle;Max_cycle;Signal;HPM_P1;HPM_P2
2023/03/25 00:01:41;;;;;;;1.50;0.70;;;9.30;91.30;;;12.16;53.71;96966.63;5061760;28;20408;-51
2023/03/25 00:04:08;;;;;;;2.20;0.60;;;9.40;90.90;;;12.16;53.74;96977.31;5062025;28;20508;-50
2023/03/25 00:06:36;;;;;;;0.90;0.50;;;9.40;90.80;;;12.09;53.73;96986.25;5042120;28;20048;-46
2023/03/25 00:09:03;;;;;;;2.00;0.93;;;9.30;89.60;;;12.26;53.08;96992.19;5040693;28;20045;-49
2023/03/25 00:11:31;;;;;;;4.70;1.60;;;9.40;90.20;;;12.18;53.36;96985.13;5060229;28;20049;-47
2023/03/25 00:13:59;;;;;;;1.80;0.53;;;9.40;89.00;;;12.25;52.88;96979.84;5061910;28;20075;-52
2023/03/25 00:16:26;;;;;;;1.87;0.80;;;9.40;89.20;;;12.21;53.09;96974.06;5060481;28;20056;-50
2023/03/25 00:18:54;;;;;;;4.73;1.07;;;9.40;88.60;;;12.01;53.46;96977.31;5057027;28;20052;-49
2023/03/25 00:21:22;;;;;;;2.10;1.13;;;9.30;87.80;;;12.20;52.94;96980.44;5061739;28;20420;-50
2023/03/25 00:23:49;;;;;;;0.70;0.70;;;9.40;88.30;;;12.29;52.47;96979.31;5048146;28;20059;-50
2023/03/25 00:26:17;;;;;;;1.60;0.70;;;9.40;88.30;;;12.33;52.71;96987.75;5066221;28;20400;-48
2023/03/25 00:28:45;;;;;;;4.40;1.13;;;9.50;88.10;;;12.26;52.46;96971.66;5062062;28;20041;-47
2023/03/25 00:31:13;;;;;;;4.77;0.70;;;9.40;87.40;;;12.36;52.61;96974.84;5028057;28;20052;-49
2023/03/25 00:33:41;;;;;;;3.13;1.13;;;9.40;87.50;;;12.41;52.24;96975.13;5064351;28;20056;-50
2023/03/25 00:36:13;;;;;;;3.50;1.00;;;9.40;87.10;;;12.44;52.04;96965.06;5047483;28;20055;-46
2023/03/25 00:38:42;;;;;;;2.73;1.20;;;9.50;86.20;;;12.44;52.21;96968.56;5062444;28;20503;-51
2023/03/25 00:41:34;;;;;;;1.60;0.77;;;9.50;85.90;;;12.46;52.06;96971.06;5062076;28;20519;-47
2023/03/25 00:44:03;;;;;;;1.57;0.90;;;9.50;85.60;;;12.48;51.79;96969.00;5058174;28;20048;-52
2023/03/25 00:46:32;;;;;;;1.70;0.70;;;9.50;85.60;;;12.50;51.71;96956.31;5055236;28;20053;-52
2023/03/25 00:49:00;;;;;;;2.97;1.40;;;9.50;85.40;;;12.47;51.59;96967.38;5038386;28;20388;-48
2023/03/25 00:51:30;;;;;;;3.23;1.07;;;9.50;85.30;;;12.44;51.99;96959.75;5046483;28;20049;-46
2023/03/25 00:54:02;;;;;;;2.97;1.00;;;9.40;85.80;;;12.42;51.83;96946.56;5055747;28;20041;-49
2023/03/25 00:56:30;;;;;;;2.70;0.90;;;9.40;85.90;;;12.40;52.02;96946.75;5045735;28;20048;-47
2023/03/25 00:58:57;;;;;;;3.50;1.23;;;9.40;86.10;;;12.41;51.88;96952.94;5042715;28;20049;-49
2023/03/25 01:01:27;;;;;;;1.70;0.70;;;9.40;86.10;;;12.39;52.02;96953.13;5049856;28;20048;-47
2023/03/25 01:03:58;;;;;;;2.20;1.20;;;9.40;85.60;;;12.30;51.82;96953.44;5065192;28;20519;-49
2023/03/25 01:06:34;;;;;;;4.00;1.00;;;9.30;85.20;;;12.32;51.69;96944.22;5045771;28;20420;-48
2023/03/25 01:09:06;;;;;;;3.10;1.43;;;9.20;86.00;;;12.29;51.69;96947.28;5042838;28;20045;-51
2023/03/25 01:11:37;;;;;;;2.30;0.90;;;9.20;86.00;;;12.24;51.94;96956.88;5045837;28;20055;-48
2023/03/25 01:14:10;;;;;;;2.33;1.33;;;9.20;85.60;;;12.24;51.51;96959.53;5062230;28;20044;-48
2023/03/25 01:16:39;;;;;;;1.67;0.82;;;9.20;85.00;;;12.25;51.44;96962.00;5063186;28;20107;-49
2023/03/25 01:19:06;;;;;;;2.37;0.80;;;9.20;84.80;;;12.24;51.80;96960.34;5061160;28;20037;-48
2023/03/25 01:21:35;;;;;;;2.50;1.00;;;9.20;85.10;;;12.30;51.43;96956.91;5063069;28;20047;-51
2023/03/25 01:24:04;;;;;;;2.90;0.83;;;9.30;84.40;;;12.36;51.27;96958.81;5030486;28;20044;-49
2023/03/25 01:26:32;;;;;;;2.67;1.43;;;9.30;84.10;;;12.37;51.41;96941.00;5045856;28;20488;-50
2023/03/25 01:29:01;;;;;;;2.83;0.90;;;9.30;83.60;;;12.45;51.00;96938.19;5061040;28;20048;-51
2023/03/25 01:31:30;;;;;;;1.30;0.80;;;9.40;82.90;;;12.48;51.08;96924.44;5048859;28;20045;-51
2023/03/25 01:33:59;;;;;;;3.97;1.20;;;9.50;82.80;;;12.51;50.67;96928.59;5063928;28;20401;-50
2023/03/25 01:36:30;;;;;;;1.93;1.20;;;9.50;81.50;;;12.51;50.54;96941.94;5063949;28;20041;-49
2023/03/25 01:39:00;;;;;;;3.97;0.90;;;9.50;81.40;;;12.54;50.91;96936.22;5059090;28;20056;-51
2023/03/25 01:41:28;;;;;;;4.33;1.27;;;9.50;81.30;;;12.56;50.47;96943.03;5043863;28;20041;-53
2023/03/25 01:44:13;;;;;;;3.37;1.20;;;9.50;81.00;;;12.57;50.10;96944.66;5048727;28;20033;-50
2023/03/25 01:46:47;;;;;;;1.70;1.30;;;9.50;81.00;;;12.56;50.17;96942.19;5053935;28;20191;-49
2023/03/25 01:49:30;;;;;;;2.00;0.80;;;9.50;80.90;;;12.57;50.16;96935.84;5063928;28;20047;-51
2023/03/25 01:52:04;;;;;;;2.50;0.90;;;9.40;80.60;;;12.51;50.30;96934.75;5049581;28;20052;-48
2023/03/25 01:54:33;;;;;;;1.83;0.57;;;9.40;81.00;;;12.49;50.08;96936.78;5067708;28;20041;-49
2023/03/25 01:57:01;;;;;;;1.73;0.80;;;9.30;81.00;;;12.46;50.25;96926.47;5060391;28;20149;-47
2023/03/25 01:59:29;;;;;;;2.13;0.80;;;9.40;81.10;;;12.42;50.35;96914.53;5042385;28;20056;-51
2023/03/25 02:02:02;;;;;;;1.90;0.73;;;9.30;80.90;;;12.41;50.63;96912.91;5064289;28;20044;-53
2023/03/25 02:04:58;;;;;;;2.50;0.90;;;9.30;81.10;;;12.42;50.20;96909.19;5044985;28;20411;-51
2023/03/25 02:07:29;;;;;;;4.70;1.77;;;9.30;80.80;;;12.45;50.28;96894.66;5044670;28;20045;-48
2023/03/25 02:10:05;;;;;;;2.50;1.07;;;9.20;81.00;;;12.41;50.06;96902.22;5021613;28;20048;-48
2023/03/25 02:12:33;;;;;;;2.23;0.70;;;9.30;80.60;;;12.43;49.97;96902.84;5063454;28;20496;-47
2023/03/25 02:15:05;;;;;;;3.73;0.90;;;9.30;80.60;;;12.42;50.09;96906.53;5058902;28;20701;-46
2023/03/25 02:17:46;;;;;;;3.80;1.07;;;9.30;80.10;;;12.28;49.76;96910.09;5041395;28;20053;-49
2023/03/25 02:20:29;;;;;;;1.97;1.10;;;9.30;79.30;;;12.31;50.23;96917.72;5028577;28;20036;-51
2023/03/25 02:23:27;;;;;;;2.50;1.13;;;9.20;79.20;;;12.02;51.50;96962.16;5026280;28;20049;-49
2023/03/25 02:26:20;;;;;;;3.27;1.13;;;9.20;82.70;;;11.42;55.10;97011.97;5067931;28;20037;-51
2023/03/25 02:29:22;;;;;;;1.23;0.60;;;8.70;95.80;;;10.24;57.49;97008.66;5062721;28;20507;-55
2023/03/25 02:32:11;;;;;;;1.48;0.90;;;7.70;99.90;;;9.95;57.66;97004.00;5047345;28;20044;-52
2023/03/25 02:35:07;;;;;;;3.07;0.50;;;7.40;99.90;;;9.43;59.65;97013.28;5061937;28;20044;-53
2023/03/25 02:38:33;;;;;;;1.20;0.60;;;7.10;99.90;;;8.73;62.01;97008.53;5034410;28;20285;-53
2023/03/25 02:41:24;;;;;;;1.53;0.47;;;6.80;99.90;;;8.92;60.83;97011.84;5021390;28;20060;-47
2023/03/25 02:44:20;;;;;;;0.83;0.57;;;6.60;99.90;;;8.85;61.36;97022.31;5032340;28;20045;-50
2023/03/25 02:46:54;;;;;;;0.80;0.53;;;6.60;99.90;;;8.49;61.72;96990.75;5068963;28;20049;-49
2023/03/25 02:49:35;;;;;;;0.50;0.50;;;6.40;99.90;;;8.70;61.64;96984.16;5062977;28;20068;-47
2023/03/25 02:52:30;;;;;;;0.40;0.40;;;6.50;99.90;;;8.74;61.59;96966.91;5029792;28;20063;-52
2023/03/25 02:55:03;;;;;;;1.37;0.60;;;6.50;99.90;;;8.75;60.73;96944.69;5048974;28;20041;-50
2023/03/25 02:57:34;;;;;;;;;;;6.40;99.90;;;8.82;61.51;96930.56;5034826;28;20407;-51
2023/03/25 03:00:14;;;;;;;0.87;0.70;;;6.40;99.90;;;8.94;60.20;96927.59;5034407;28;19943;-51
2023/03/25 03:03:03;;;;;;;0.40;0.40;;;6.50;99.90;;;8.88;60.16;96913.16;5042880;28;20393;-49
2023/03/25 03:05:42;;;;;;;0.50;0.50;;;6.40;99.90;;;8.86;60.86;96915.16;5025823;28;20060;-47
2023/03/25 03:08:49;;;;;;;0.40;0.40;;;6.40;99.90;;;8.87;60.36;96916.78;5036475;28;20044;-51
2023/03/25 03:11:30;;;;;;;0.87;0.60;;;6.40;99.90;;;8.83;60.37;96908.34;5059842;28;20068;-49
2023/03/25 03:14:18;;;;;;;0.60;0.30;;;6.40;99.90;;;8.75;61.05;96903.03;5059366;28;20045;-49
2023/03/25 03:17:07;;;;;;;0.30;0.30;;;6.40;99.90;;;8.84;60.13;96904.69;5060439;28;20055;-47
2023/03/25 03:19:47;;;;;;;0.60;0.50;;;6.40;99.90;;;8.92;59.71;96908.31;5046100;28;20405;-49
2023/03/25 03:23:00;;;;;;;0.40;0.40;;;6.40;99.90;;;8.86;60.21;96909.84;5042421;28;20044;-50
2023/03/25 03:25:39;;;;;;;1.23;0.70;;;6.50;99.90;;;8.87;60.19;96919.44;5046402;28;20075;-50
2023/03/25 03:28:21;;;;;;;0.50;0.50;;;6.40;99.90;;;8.88;60.04;96915.81;5046755;28;20103;-46
2023/03/25 03:30:59;;;;;;;0.27;0.27;;;6.40;99.90;;;8.96;59.93;96917.63;5043595;28;20133;-47
2023/03/25 03:33:52;;;;;;;0.70;0.50;;;6.50;99.90;;;9.02;59.60;96939.00;5058768;28;20041;-47
2023/03/25 03:36:26;;;;;;;2.37;0.50;;;6.50;99.90;;;8.99;59.44;96941.97;5042119;28;20032;-52
2023/03/25 03:39:09;;;;;;;1.30;1.20;;;6.50;99.90;;;8.99;59.61;96947.28;5024560;28;20044;-50
2023/03/25 03:41:41;;;;;;;1.03;0.80;;;6.50;99.90;;;8.91;59.72;96949.16;5042790;28;20048;-46
2023/03/25 03:44:17;;;;;;;3.17;1.37;;;6.50;99.90;;;9.06;59.71;96947.47;5044911;28;20044;-49
2023/03/25 03:47:27;;;;;;;1.73;0.60;;;6.60;99.90;;;9.06;59.85;96963.41;5043586;28;20516;-46
2023/03/25 03:50:03;;;;;;;2.20;0.70;;;6.70;99.90;;;9.23;59.27;96959.72;4972563;28;20053;-52
2023/03/25 03:55:46;;;;;;;1.37;0.80;;;6.80;99.90;;;9.49;58.45;96963.13;5050791;28;20054;-51
2023/03/25 03:58:28;;;;;;;0.80;0.80;;;6.80;99.90;;;9.61;58.33;96965.22;5048974;28;20488;-49
2023/03/25 04:01:29;;;;;;;2.13;0.80;;;6.90;99.90;;;9.68;58.46;96962.72;5063030;28;20033;-48
2023/03/25 04:04:06;;;;;;;0.60;0.60;;;6.90;99.90;;;9.80;58.10;96979.13;5052024;28;20041;-49
2023/03/25 04:06:40;;;;;;;1.37;0.80;;;7.00;99.90;;;9.88;57.79;96983.59;5048709;28;20036;-49
2023/03/25 04:09:39;;;;;;;4.10;0.90;;;7.10;99.90;;;10.01;57.33;96997.16;5062045;28;20033;-49
2023/03/25 04:12:22;;;;;;;0.67;0.50;;;7.20;99.90;;;10.04;57.53;97000.31;5054476;28;20041;-50
2023/03/25 04:14:50;;;;;;;1.13;0.80;;;7.20;99.90;;;10.06;56.96;97005.41;5045131;28;20048;-49
2023/03/25 04:17:17;;;;;;;1.77;1.00;;;7.30;99.90;;;10.09;57.27;97005.09;5048180;28;20516;-47
2023/03/25 04:19:47;;;;;;;1.27;1.00;;;7.20;99.90;;;10.12;56.68;97002.09;5063848;28;20491;-51
2023/03/25 04:22:17;;;;;;;1.57;0.80;;;7.30;99.90;;;10.17;56.29;96996.25;5062406;28;20484;-48
2023/03/25 04:24:48;;;;;;;1.60;1.00;;;7.30;99.90;;;10.22;56.52;97001.88;5063892;28;20041;-46
2023/03/25 04:27:21;;;;;;;7.77;0.90;;;7.30;99.90;;;10.29;56.26;97002.00;5065758;28;20032;-47
2023/03/25 04:29:50;;;;;;;2.10;0.52;;;7.30;99.90;;;10.33;56.39;97004.19;5063414;28;20059;-48
2023/03/25 04:32:18;;;;;;;2.77;0.77;;;7.30;99.90;;;10.34;55.64;97000.50;5062229;28;20041;-49
2023/03/25 04:34:45;;;;;;;2.03;0.80;;;7.30;99.90;;;10.35;56.00;97006.63;5063727;28;20060;-53
2023/03/25 04:37:13;;;;;;;3.33;1.10;;;7.30;99.90;;;10.36;56.02;97005.66;5065666;28;20047;-49
2023/03/25 04:39:41;;;;;;;2.33;0.70;;;7.30;99.90;;;10.39;56.20;97003.47;5055562;28;20048;-48
2023/03/25 04:42:12;;;;;;;3.20;0.97;;;7.40;99.90;;;10.42;55.97;96997.78;5069178;28;20041;-52
2023/03/25 04:44:40;;;;;;;1.47;1.23;;;7.40;99.90;;;10.45;55.65;96996.63;5045464;28;20045;-48
2023/03/25 04:47:13;;;;;;;3.17;0.83;;;7.40;99.90;;;10.41;55.47;96989.97;5065374;28;20045;-48
2023/03/25 04:49:43;;;;;;;4.15;1.02;;;7.30;99.90;;;10.42;55.51;97005.75;5064193;28;20037;-48
2023/03/25 04:52:11;;;;;;;1.70;0.90;;;7.40;99.90;;;10.44;55.59;96990.44;5061850;28;20033;-52
2023/03/25 04:54:39;;;;;;;2.50;0.90;;;7.40;99.90;;;10.46;55.23;97002.75;5062108;28;20052;-48
2023/03/25 04:57:10;;;;;;;2.13;1.10;;;7.40;99.90;;;10.42;55.14;97019.06;5046916;28;20040;-51
2023/03/25 04:59:37;;;;;;;4.73;1.27;;;7.40;99.90;;;10.48;55.38;97027.38;5064957;28;20480;-51
2023/03/25 05:02:11;;;;;;;1.40;0.60;;;7.40;99.90;;;10.51;55.61;97019.03;5061480;28;20041;-48
2023/03/25 05:04:46;;;;;;;2.13;0.80;;;7.50;99.90;;;10.52;54.82;97021.50;5045473;28;20354;-53
2023/03/25 05:07:15;;;;;;;2.47;1.00;;;7.50;99.90;;;10.55;55.31;97023.00;5064243;28;20041;-49
2023/03/25 05:09:43;;;;;;;2.37;0.87;;;7.50;99.90;;;10.57;54.99;97023.66;5046376;28;20040;-49
2023/03/25 05:12:10;;;;;;;3.47;1.80;;;7.50;99.90;;;10.60;54.95;97016.16;5061274;28;20064;-49
2023/03/25 05:14:38;;;;;;;2.07;1.03;;;7.50;99.90;;;10.54;54.77;97016.84;5061636;28;20037;-47
2023/03/25 05:17:06;;;;;;;3.07;1.00;;;7.50;99.90;;;10.61;54.85;97007.16;5064241;28;20040;-53
2023/03/25 05:19:42;;;;;;;2.87;1.23;;;7.50;99.90;;;10.60;54.50;97005.50;5064519;28;20036;-47
2023/03/25 05:22:36;;;;;;;2.23;1.07;;;7.60;99.90;;;10.60;54.53;96997.53;5040049;28;20059;-51
2023/03/25 05:25:06;;;;;;;3.50;1.20;;;7.60;99.90;;;10.52;54.33;96996.72;5056503;28;20063;-46
2023/03/25 05:27:35;;;;;;;6.47;1.27;;;7.60;99.90;;;10.42;53.63;97005.75;5064635;28;20393;-53
2023/03/25 05:30:05;;;;;;;7.03;1.07;;;7.50;99.90;;;10.42;53.85;96991.63;5061096;28;20048;-49
2023/03/25 05:32:33;;;;;;;5.47;1.60;;;7.50;99.90;;;10.40;53.85;96991.81;5061074;28;20037;-46
2023/03/25 05:35:03;;;;;;;5.33;1.60;;;7.60;99.90;;;10.36;53.29;96995.81;5046410;28;20124;-50
2023/03/25 05:37:30;;;;;;;3.53;1.30;;;7.60;99.90;;;10.45;53.29;96993.97;5064573;28;20419;-52
2023/03/25 05:39:58;;;;;;;3.77;1.10;;;7.60;99.90;;;10.40;53.15;97014.94;5061379;28;20044;-51
2023/03/25 05:42:26;;;;;;;4.77;1.70;;;7.60;99.90;;;10.38;53.16;96998.31;5061033;28;20037;-47
2023/03/25 05:44:53;;;;;;;5.37;1.90;;;7.60;99.90;;;10.31;53.26;96997.34;5063019;28;20041;-48
2023/03/25 05:47:23;;;;;;;2.07;1.10;;;7.70;99.90;;;10.32;53.04;96997.19;5064369;28;20047;-49
2023/03/25 05:49:52;;;;;;;4.37;1.40;;;7.70;99.90;;;10.46;52.69;96998.25;5061999;28;20043;-47
2023/03/25 05:52:23;;;;;;;3.00;1.50;;;7.70;99.90;;;10.49;52.35;97007.72;5060607;28;20508;-51
2023/03/25 05:54:51;;;;;;;4.20;1.33;;;7.80;99.90;;;10.57;52.78;97000.53;5062085;28;20060;-51
2023/03/25 05:57:18;;;;;;;2.63;1.37;;;7.80;99.90;;;10.51;52.50;97011.06;5063942;28;20049;-49
2023/03/25 05:59:46;;;;;;;3.83;1.10;;;7.80;99.90;;;10.66;52.24;97013.78;5062931;28;20488;-48
2023/03/25 06:02:16;;;;;;;3.47;1.03;;;7.90;99.90;;;10.70;52.22;97013.25;5060603;28;20416;-46
2023/03/25 06:04:45;;;;;;;2.83;1.87;;;7.90;99.90;;;10.59;51.82;97030.44;5043518;28;20041;-46
2023/03/25 06:07:18;;;;;;;5.57;1.30;;;7.90;97.10;;;10.59;51.73;97005.69;5045704;28;20067;-47
2023/03/25 06:09:47;;;;;;;2.30;1.20;;;7.90;97.00;;;10.62;52.10;97023.94;5046043;28;20040;-52
2023/03/25 06:12:18;;;;;;;2.60;1.27;;;7.90;99.30;;;10.74;52.12;97022.53;5042830;28;20045;-52
2023/03/25 06:14:52;;;;;;;5.20;2.13;;;8.00;99.90;;;10.85;51.66;97026.59;5061097;28;20052;-50
2023/03/25 06:17:21;;;;;;;1.48;1.00;;;8.10;99.20;;;10.93;52.04;97028.38;5063067;28;20048;-49
2023/03/25 06:19:50;;;;;;;5.33;1.47;;;8.10;98.10;;;11.01;51.59;97030.97;5062342;28;20051;-45
2023/03/25 06:22:21;;;;;;;6.30;1.40;;;8.20;97.00;;;10.82;51.49;97056.28;5041762;28;20041;-46
2023/03/25 06:24:48;;;;;;;4.57;1.33;;;8.20;95.20;;;10.83;51.88;97041.94;5061388;28;20500;-49
2023/03/25 06:27:18;;;;;;;4.97;1.30;;;8.10;96.20;;;10.70;51.70;97041.69;5063390;28;20048;-47
2023/03/25 06:29:46;;;;;;;3.67;1.10;;;8.00;95.40;;;10.77;51.56;97034.66;5044879;28;20045;-46
2023/03/25 06:32:15;;;;;;;4.20;1.77;;;8.00;96.40;;;10.85;51.86;97026.59;5029185;28;20061;-49
2023/03/25 06:34:43;;;;;;;3.33;1.20;;;8.10;97.20;;;10.85;51.67;97037.25;5063350;28;20037;-50
2023/03/25 06:37:10;;;;;;;3.33;1.20;;;8.10;95.90;;;10.94;52.04;97028.22;5045706;28;20041;-48
2023/03/25 06:39:38;;;;;;;6.30;2.40;;;8.10;97.00;;;11.00;51.51;97037.31;5052947;28;20044;-47
2023/03/25 06:42:14;;;;;;;4.00;1.30;;;8.20;96.40;;;10.99;51.96;97033.00;5051128;28;20045;-51
2023/03/25 06:44:55;;;;;;;3.03;1.10;;;8.30;94.90;;;10.98;51.66;97037.50;5058758;28;20535;-46
2023/03/25 06:47:44;;;;;;;2.03;1.10;;;8.30;93.00;;;11.10;51.69;97031.75;5044597;28;20519;-46
2023/03/25 06:50:11;;;;;;;1.80;0.80;;;8.30;94.60;;;11.02;51.47;97028.13;5042556;28;20056;-48
2023/03/25 06:52:39;;;;;;;6.40;1.30;;;8.30;92.90;;;11.02;51.85;97025.47;5059690;28;20132;-47
2023/03/25 06:55:07;;;;;;;3.47;1.07;;;8.30;93.60;;;11.03;51.59;97027.16;5062719;28;20044;-46
2023/03/25 06:57:35;;;;;;;6.70;1.93;;;8.30;93.70;;;11.16;51.72;97025.69;5062762;28;20048;-49
2023/03/25 07:00:05;;;;;;;2.30;1.40;;;8.40;93.20;;;11.18;51.93;97029.00;5060029;28;20044;-49
2023/03/25 07:02:33;;;;;;;2.03;1.17;;;8.40;92.40;;;11.18;51.51;97015.69;5059330;28;20037;-46
2023/03/25 07:05:26;;;;;;;4.30;1.10;;;8.40;92.70;;;11.37;51.91;97038.34;5060376;28;20049;-47
2023/03/25 07:07:54;;;;;;;3.53;1.17;;;8.50;92.20;;;11.47;51.74;97032.75;5050956;28;20053;-47
2023/03/25 07:10:22;;;;;;;3.63;1.60;;;8.60;92.50;;;11.61;51.03;97046.09;5065468;28;20396;-50
2023/03/25 07:12:50;;;;;;;2.40;0.80;;;8.70;91.60;;;11.73;51.46;97032.28;5059957;28;20044;-45
2023/03/25 07:15:17;;;;;;;4.47;1.70;;;8.90;90.30;;;11.81;50.95;97032.22;5058529;28;20452;-48
2023/03/25 07:17:48;;;;;;;2.23;1.00;;;8.90;91.00;;;11.85;51.32;97022.84;5060847;28;20049;-46
2023/03/25 07:20:15;;;;;;;2.60;1.07;;;8.90;90.60;;;11.89;50.58;97036.66;5059027;28;20040;-48
2023/03/25 07:22:43;;;;;;;3.07;1.10;;;8.90;88.60;;;11.90;50.13;97030.31;5059081;28;20522;-46
2023/03/25 07:25:11;;;;;;;2.43;1.33;;;8.90;86.90;;;11.90;50.23;97030.31;5050475;28;20037;-46
2023/03/25 07:27:39;;;;;;;5.47;1.27;;;9.00;86.00;;;11.96;50.12;97026.91;5059201;28;20040;-48
2023/03/25 07:30:14;;;;;;;1.63;0.90;;;9.00;84.80;;;11.65;50.03;97033.25;5044044;28;20040;-46
2023/03/25 07:32:45;;;;;;;3.27;1.57;;;9.00;83.10;;;11.59;50.24;97041.94;5062862;28;20043;-45
2023/03/25 07:35:13;;;;;;;2.47;0.90;;;9.00;82.90;;;11.82;49.81;97036.53;5059229;28;20040;-46
2023/03/25 07:37:41;;;;;;;5.13;1.53;;;9.10;83.90;;;11.98;50.18;97033.72;5059299;28;20427;-49
2023/03/25 07:40:09;;;;;;;5.23;1.60;;;9.20;83.80;;;12.09;49.66;97029.75;5061834;28;20045;-48
2023/03/25 07:42:37;;;;;;;4.90;1.30;;;9.30;84.30;;;12.27;50.11;97033.88;5062027;28;20044;-46
2023/03/25 07:45:20;;;;;;;2.70;1.77;;;9.40;85.00;;;12.46;50.17;97038.59;5049103;28;20056;-47
2023/03/25 07:47:50;;;;;;;4.07;1.10;;;9.50;85.20;;;12.54;49.57;97046.53;5029813;28;20041;-46
2023/03/25 07:50:22;;;;;;;1.17;0.70;;;9.60;83.90;;;12.63;49.56;97051.75;5028758;28;20040;-47
2023/03/25 07:52:56;;;;;;;1.53;1.00;;;9.70;83.50;;;12.67;49.22;97047.69;5061760;28;20056;-48
2023/03/25 07:55:23;;;;;;;3.87;1.10;;;9.60;81.60;;;12.67;48.94;97047.69;5061955;28;20410;-45
2023/03/25 07:57:51;;;;;;;1.90;0.87;;;9.70;82.80;;;12.68;49.15;97041.31;5036163;28;20053;-51
2023/03/25 08:00:19;;;;;;;3.20;0.90;;;9.70;83.00;;;12.70;49.40;97036.63;5057046;28;20519;-48
2023/03/25 08:02:46;;;;;;;1.83;0.83;;;9.70;83.50;;;12.76;49.27;97044.69;5058471;28;20052;-47
2023/03/25 08:05:20;;;;;;;4.50;1.10;;;9.70;83.00;;;12.86;49.60;97035.56;5062369;28;20041;-49
2023/03/25 08:07:49;;;;;;;2.67;1.10;;;9.80;82.90;;;12.90;49.22;97029.63;5040133;28;20045;-47
2023/03/25 08:10:18;;;;;;;4.27;0.97;;;9.90;82.80;;;12.98;49.44;97026.00;5032340;28;20045;-46
2023/03/25 08:12:45;;;;;;;3.00;1.43;;;10.00;82.60;;;13.03;49.02;97026.25;5058699;28;20519;-46
2023/03/25 08:15:13;;;;;;;2.70;1.20;;;10.00;81.70;;;13.07;48.93;97024.84;5058902;28;20041;-45
2023/03/25 08:17:41;;;;;;;4.10;1.40;;;10.10;81.80;;;13.11;48.97;97028.78;5057780;28;20045;-45
2023/03/25 08:20:10;;;;;;;3.30;1.10;;;10.10;80.50;;;13.14;48.72;97031.09;5061339;28;20036;-49
2023/03/25 08:22:37;;;;;;;2.03;0.73;;;10.20;80.50;;;13.05;48.24;97029.56;5061863;28;20052;-51
2023/03/25 08:25:06;;;;;;;1.70;1.30;;;10.10;78.10;;;12.96;48.35;97028.84;5041736;28;20051;-51
2023/03/25 08:27:34;;;;;;;6.97;1.80;;;10.10;77.50;;;12.92;48.22;97026.78;5040914;28;20052;-49
2023/03/25 08:30:03;;;;;;;1.23;0.70;;;10.00;77.60;;;12.96;47.77;97025.38;5060030;28;20048;-49
2023/03/25 08:32:31;;;;;;;2.07;0.97;;;10.00;76.50;;;12.79;47.53;97036.31;5061607;28;20037;-46
2023/03/25 08:34:59;;;;;;;2.53;0.93;;;10.00;75.30;;;12.93;47.96;97028.41;5060389;28;20492;-48
2023/03/25 08:37:26;;;;;;;2.53;0.77;;;10.10;76.00;;;13.05;47.89;97034.09;5040604;28;20045;-47
2023/03/25 08:39:54;;;;;;;1.00;0.90;;;10.20;76.00;;;12.98;47.41;97045.53;5058567;28;20049;-47
2023/03/25 08:42:22;;;;;;;3.13;1.03;;;10.20;73.00;;;13.04;47.45;97040.44;5046988;28;20040;-48
2023/03/25 08:44:50;;;;;;;1.07;0.87;;;10.10;73.70;;;12.92;47.18;97046.28;5065300;28;20049;-48
2023/03/25 08:47:17;;;;;;;1.40;0.77;;;10.10;74.00;;;12.83;47.69;97052.78;5057210;28;20045;-52
2023/03/25 08:49:45;;;;;;;2.67;1.00;;;10.00;76.30;;;12.80;49.14;97058.50;5029578;28;20067;-49
2023/03/25 08:52:12;;;;;;;1.47;0.73;;;9.90;81.20;;;12.87;49.09;97054.06;5064509;28;20064;-47
2023/03/25 08:54:40;;;;;;;2.13;1.33;;;9.80;82.80;;;12.92;49.51;97061.50;5067058;28;20067;-46
2023/03/25 08:57:07;;;;;;;2.10;0.70;;;9.80;84.20;;;12.84;49.43;97061.63;5049938;28;20051;-45
2023/03/25 08:59:35;;;;;;;1.53;0.77;;;9.70;84.70;;;12.82;49.88;97067.16;5060592;28;20047;-51
2023/03/25 09:02:03;;;;;;;2.13;0.90;;;9.70;85.70;;;12.80;49.65;97058.50;5064168;28;20040;-45
2023/03/25 09:04:30;;;;;;;8.30;5.20;;;9.70;84.20;;;12.81;50.22;97054.81;5058839;28;20484;-46
2023/03/25 09:06:58;;;;;;;2.63;1.40;;;9.70;85.70;;;12.90;50.61;97058.19;5057634;28;20049;-46
2023/03/25 09:09:42;;;;;;;3.23;1.40;;;9.80;86.90;;;12.92;50.60;97054.31;5061111;28;20041;-50
2023/03/25 09:12:09;;;;;;;1.90;1.20;;;9.70;87.30;;;12.94;50.52;97049.59;5056435;28;20063;-46
2023/03/25 09:14:37;;;;;;;0.70;0.70;;;9.70;87.40;;;12.96;50.42;97060.09;5060481;28;20412;-48
2023/03/25 09:17:05;;;;;;;0.43;0.43;;;9.80;87.60;;;13.00;50.28;97050.69;5047515;28;20478;-47
2023/03/25 09:19:34;;;;;;;0.83;0.43;;;9.80;86.70;;;13.05;50.25;97050.13;5060967;28;20546;-49
2023/03/25 09:22:01;;;;;;;2.50;0.80;;;9.80;85.00;;;13.04;50.09;97056.47;5060229;28;20044;-45
2023/03/25 09:24:32;;;;;;;1.70;0.80;;;9.80;86.10;;;13.12;50.56;97043.78;5050119;28;20040;-45
2023/03/25 09:27:01;;;;;;;31.20;15.60;;;9.90;87.20;;;13.16;50.32;97038.91;5060158;28;20052;-46
2023/03/25 09:29:29;;;;;;;3.17;2.87;;;10.00;85.40;;;13.26;49.93;97055.47;5046087;28;20043;-48
2023/03/25 09:31:58;;;;;;;1.17;0.50;;;10.20;84.60;;;13.23;49.66;97047.00;5057182;28;20041;-52
2023/03/25 09:34:27;;;;;;;0.47;0.47;;;10.10;81.40;;;13.30;49.56;97037.19;5058258;28;20496;-47
2023/03/25 09:36:55;;;;;;;13.07;8.07;;;10.20;82.90;;;13.45;49.79;97040.59;5051345;28;20041;-49
2023/03/25 09:39:22;;;;;;;1.97;0.93;;;10.30;83.00;;;13.51;48.75;97042.53;5063132;28;20041;-45
2023/03/25 09:42:25;;;;;;;0.40;0.40;;;10.50;79.90;;;13.48;48.60;97050.09;5055973;28;20039;-46
2023/03/25 09:45:40;;;;;;;1.43;0.67;;;10.40;78.30;;;13.33;48.33;97034.97;5058284;28;20052;-48
2023/03/25 09:48:27;;;;;;;;;;;10.40;76.50;;;13.49;48.08;97047.25;5063628;28;20415;-49
2023/03/25 09:51:01;;;;;;;0.73;0.60;;;10.40;77.30;;;13.54;48.25;97036.78;5055342;28;19928;-47
2023/03/25 09:53:58;;;;;;;0.40;0.40;;;10.40;78.10;;;13.60;48.77;97029.81;5054712;28;20499;-48
2023/03/25 09:56:30;;;;;;;0.77;0.50;;;10.60;79.40;;;13.76;48.72;97034.88;5056453;28;20033;-46
2023/03/25 09:59:06;;;;;;;0.40;0.40;;;10.70;79.40;;;13.63;48.29;97029.44;5054206;28;20051;-46
2023/03/25 10:02:03;;;;;;;0.40;0.40;;;10.70;77.20;;;13.63;48.24;97040.16;5046532;28;20044;-46
2023/03/25 10:05:05;;;;;;;0.40;0.40;;;10.70;77.00;;;13.42;49.03;97050.88;5046052;28;20036;-50
2023/03/25 10:07:36;;;;;;;2.40;0.60;;;10.60;79.00;;;13.46;49.75;97044.94;5051919;28;20443;-48
2023/03/25 10:10:30;;;;;;;2.07;1.00;;;10.50;81.90;;;13.08;51.88;97045.19;5058290;28;20045;-47
2023/03/25 10:13:13;;;;;;;;;;;10.30;85.80;;;13.29;50.67;97022.97;5044922;28;20401;-49
2023/03/25 10:16:06;;;;;;;1.87;1.13;;;10.20;87.60;;;13.19;52.04;97042.03;5033932;28;19920;-49
2023/03/25 10:19:06;;;;;;;4.20;2.30;;;10.20;89.00;;;13.06;52.61;97036.56;5060812;28;20500;-50
2023/03/25 10:22:00;;;;;;;4.37;2.10;;;10.10;92.60;;;13.14;53.06;97039.13;5050980;28;20412;-49
2023/03/25 10:24:31;;;;;;;1.20;0.63;;;10.20;94.00;;;13.00;53.51;97035.47;5056052;28;20044;-52
2023/03/25 10:27:30;;;;;;;1.20;0.50;;;10.00;94.50;;;12.95;53.26;97047.75;5058476;28;20047;-48
2023/03/25 10:30:31;;;;;;;1.23;0.70;;;9.90;95.60;;;12.66;54.13;97049.53;5059934;28;20050;-47
2023/03/25 10:33:04;;;;;;;2.33;0.77;;;9.70;96.60;;;12.66;54.24;97041.53;5062719;28;20052;-48
2023/03/25 10:35:41;;;;;;;1.45;1.20;;;9.50;99.00;;;12.66;53.61;97040.66;5042696;28;20041;-47
2023/03/25 10:38:23;;;;;;;2.03;1.40;;;9.50;99.90;;;12.74;53.75;97048.59;5044009;28;20416;-48
2023/03/25 10:41:18;;;;;;;1.47;1.00;;;9.60;99.90;;;12.84;54.16;97041.09;5063019;28;20052;-46
2023/03/25 10:43:46;;;;;;;1.70;1.20;;;9.70;99.90;;;12.91;53.80;97058.00;5042961;28;20044;-48
2023/03/25 10:46:33;;;;;;;2.50;1.47;;;9.70;99.90;;;12.90;54.37;97045.66;5060658;28;20052;-49
2023/03/25 10:49:00;;;;;;;2.70;1.10;;;9.70;99.90;;;12.75;54.06;97027.00;5059591;28;20049;-49
2023/03/25 10:51:32;;;;;;;2.37;1.03;;;9.60;99.90;;;12.57;54.99;97031.97;5063072;28;20105;-49
2023/03/25 10:54:00;;;;;;;1.87;1.30;;;9.50;99.90;;;12.53;55.28;97028.84;5052902;28;20053;-49
2023/03/25 10:56:41;;;;;;;1.07;0.90;;;9.50;99.90;;;12.40;54.80;97018.81;5045184;28;20526;-44
2023/03/25 10:59:33;;;;;;;3.63;1.30;;;9.60;99.90;;;12.47;54.62;97010.91;5043570;28;20045;-47